sensor_id;sensor_type;location;lat;lon;timestamp;P1;durP1;ratioP1;P2;durP2;ratioP2
33138;SDS011;19501;50.948;5.316;2024-01-11T00:00:56;59.13;;;24.08;;
33138;SDS011;19501;50.948;5.316;2024-01-11T00:03:24;54.85;;;23.83;;
33138;SDS011;19501;50.948;5.316;2024-01-11T00:05:49;61.00;;;24.50;;
33138;SDS011;19501;50.948;5.316;2024-01-11T00:08:15;59.72;;;24.38;;
33138;SDS011;19501;50.948;5.316;2024-01-11T00:10:41;53.30;;;21.50;;
33138;SDS011;19501;50.948;5.316;2024-01-11T00:13:07;62.53;;;24.52;;
33138;SDS011;19501;50.948;5.316;2024-01-11T00:15:32;67.43;;;26.75;;
33138;SDS011;19501;50.948;5.316;2024-01-11T00:17:58;59.90;;;23.95;;
33138;SDS011;19501;50.948;5.316;2024-01-11T00:20:28;57.00;;;23.88;;
33138;SDS011;19501;50.948;5.316;2024-01-11T00:22:54;59.03;;;23.50;;
33138;SDS011;19501;50.948;5.316;2024-01-11T00:25:19;54.55;;;22.77;;
33138;SDS011;19501;50.948;5.316;2024-01-11T00:27:45;60.22;;;23.40;;
33138;SDS011;19501;50.948;5.316;2024-01-11T00:30:11;60.22;;;24.98;;
33138;SDS011;19501;50.948;5.316;2024-01-11T00:32:36;63.70;;;23.92;;
33138;SDS011;19501;50.948;5.316;2024-01-11T00:35:02;54.70;;;22.08;;
33138;SDS011;19501;50.948;5.316;2024-01-11T00:37:30;59.72;;;23.95;;
33138;SDS011;19501;50.948;5.316;2024-01-11T00:39:56;59.65;;;23.98;;
33138;SDS011;19501;50.948;5.316;2024-01-11T00:42:22;57.70;;;23.52;;
33138;SDS011;19501;50.948;5.316;2024-01-11T00:44:47;60.75;;;24.25;;
33138;SDS011;19501;50.948;5.316;2024-01-11T00:47:14;59.85;;;22.90;;
33138;SDS011;19501;50.948;5.316;2024-01-11T00:49:40;52.88;;;22.20;;
33138;SDS011;19501;50.948;5.316;2024-01-11T00:52:05;60.45;;;23.77;;
33138;SDS011;19501;50.948;5.316;2024-01-11T00:54:31;55.88;;;23.92;;
33138;SDS011;19501;50.948;5.316;2024-01-11T00:56:57;62.25;;;22.75;;
33138;SDS011;19501;50.948;5.316;2024-01-11T00:59:22;62.17;;;23.83;;
33138;SDS011;19501;50.948;5.316;2024-01-11T01:01:48;62.50;;;22.52;;
33138;SDS011;19501;50.948;5.316;2024-01-11T01:04:14;65.38;;;25.00;;
33138;SDS011;19501;50.948;5.316;2024-01-11T01:06:40;58.05;;;23.25;;
33138;SDS011;19501;50.948;5.316;2024-01-11T01:09:06;56.45;;;22.73;;
33138;SDS011;19501;50.948;5.316;2024-01-11T01:11:32;60.15;;;22.95;;
33138;SDS011;19501;50.948;5.316;2024-01-11T01:14:00;63.58;;;23.35;;
33138;SDS011;19501;50.948;5.316;2024-01-11T01:16:25;53.33;;;22.83;;
33138;SDS011;19501;50.948;5.316;2024-01-11T01:18:51;59.60;;;22.23;;
33138;SDS011;19501;50.948;5.316;2024-01-11T01:21:17;57.10;;;21.73;;
33138;SDS011;19501;50.948;5.316;2024-01-11T01:23:43;55.10;;;22.30;;
33138;SDS011;19501;50.948;5.316;2024-01-11T01:26:08;56.63;;;22.52;;
33138;SDS011;19501;50.948;5.316;2024-01-11T01:28:34;59.10;;;23.05;;
33138;SDS011;19501;50.948;5.316;2024-01-11T01:31:00;51.80;;;21.50;;
33138;SDS011;19501;50.948;5.316;2024-01-11T01:33:25;56.00;;;23.33;;
33138;SDS011;19501;50.948;5.316;2024-01-11T01:35:51;54.30;;;20.45;;
33138;SDS011;19501;50.948;5.316;2024-01-11T01:38:16;53.13;;;22.13;;
33138;SDS011;19501;50.948;5.316;2024-01-11T01:40:42;54.95;;;22.58;;
33138;SDS011;19501;50.948;5.316;2024-01-11T01:43:09;57.53;;;21.83;;
33138;SDS011;19501;50.948;5.316;2024-01-11T01:45:35;57.72;;;22.40;;
33138;SDS011;19501;50.948;5.316;2024-01-11T01:48:00;62.50;;;23.05;;
33138;SDS011;19501;50.948;5.316;2024-01-11T01:50:27;57.50;;;22.83;;
33138;SDS011;19501;50.948;5.316;2024-01-11T01:52:54;56.08;;;22.70;;
33138;SDS011;19501;50.948;5.316;2024-01-11T01:55:21;54.13;;;22.05;;
33138;SDS011;19501;50.948;5.316;2024-01-11T01:57:48;62.92;;;22.05;;
33138;SDS011;19501;50.948;5.316;2024-01-11T02:00:15;57.78;;;22.00;;
33138;SDS011;19501;50.948;5.316;2024-01-11T02:02:42;62.65;;;23.38;;
33138;SDS011;19501;50.948;5.316;2024-01-11T02:05:10;58.92;;;22.80;;
33138;SDS011;19501;50.948;5.316;2024-01-11T02:07:37;57.70;;;24.48;;
33138;SDS011;19501;50.948;5.316;2024-01-11T02:10:06;58.92;;;23.17;;
33138;SDS011;19501;50.948;5.316;2024-01-11T02:12:33;56.40;;;21.83;;
33138;SDS011;19501;50.948;5.316;2024-01-11T02:15:00;62.63;;;22.45;;
33138;SDS011;19501;50.948;5.316;2024-01-11T02:17:28;57.03;;;22.65;;
33138;SDS011;19501;50.948;5.316;2024-01-11T02:19:54;58.60;;;23.42;;
33138;SDS011;19501;50.948;5.316;2024-01-11T02:22:35;53.65;;;22.33;;
33138;SDS011;19501;50.948;5.316;2024-01-11T02:25:03;64.85;;;22.38;;
33138;SDS011;19501;50.948;5.316;2024-01-11T02:27:29;58.05;;;23.42;;
33138;SDS011;19501;50.948;5.316;2024-01-11T02:29:55;55.33;;;23.60;;
33138;SDS011;19501;50.948;5.316;2024-01-11T02:32:20;55.83;;;22.77;;
33138;SDS011;19501;50.948;5.316;2024-01-11T02:34:49;57.88;;;21.55;;
33138;SDS011;19501;50.948;5.316;2024-01-11T02:37:15;54.17;;;22.55;;
33138;SDS011;19501;50.948;5.316;2024-01-11T02:39:41;59.47;;;23.25;;
33138;SDS011;19501;50.948;5.316;2024-01-11T02:42:07;57.83;;;22.73;;
33138;SDS011;19501;50.948;5.316;2024-01-11T02:44:33;55.80;;;22.27;;
33138;SDS011;19501;50.948;5.316;2024-01-11T02:46:58;58.28;;;22.65;;
33138;SDS011;19501;50.948;5.316;2024-01-11T02:49:24;56.95;;;23.52;;
33138;SDS011;19501;50.948;5.316;2024-01-11T02:51:49;63.92;;;23.42;;
33138;SDS011;19501;50.948;5.316;2024-01-11T02:54:15;64.68;;;23.40;;
33138;SDS011;19501;50.948;5.316;2024-01-11T02:56:41;54.00;;;21.90;;
33138;SDS011;19501;50.948;5.316;2024-01-11T02:59:07;61.40;;;23.98;;
33138;SDS011;19501;50.948;5.316;2024-01-11T03:01:32;55.20;;;22.60;;
33138;SDS011;19501;50.948;5.316;2024-01-11T03:03:58;55.97;;;22.92;;
33138;SDS011;19501;50.948;5.316;2024-01-11T03:06:27;55.63;;;22.35;;
33138;SDS011;19501;50.948;5.316;2024-01-11T03:08:52;60.17;;;23.83;;
33138;SDS011;19501;50.948;5.316;2024-01-11T03:11:18;55.20;;;22.58;;
33138;SDS011;19501;50.948;5.316;2024-01-11T03:13:44;59.90;;;22.67;;
33138;SDS011;19501;50.948;5.316;2024-01-11T03:16:09;50.65;;;20.98;;
33138;SDS011;19501;50.948;5.316;2024-01-11T03:18:35;58.33;;;22.38;;
33138;SDS011;19501;50.948;5.316;2024-01-11T03:21:00;56.17;;;22.60;;
33138;SDS011;19501;50.948;5.316;2024-01-11T03:23:26;59.50;;;22.10;;
33138;SDS011;19501;50.948;5.316;2024-01-11T03:25:52;56.38;;;21.80;;
33138;SDS011;19501;50.948;5.316;2024-01-11T03:28:17;63.95;;;23.20;;
33138;SDS011;19501;50.948;5.316;2024-01-11T03:30:43;59.08;;;21.92;;
33138;SDS011;19501;50.948;5.316;2024-01-11T03:33:11;68.10;;;22.23;;
33138;SDS011;19501;50.948;5.316;2024-01-11T03:35:37;57.15;;;21.73;;
33138;SDS011;19501;50.948;5.316;2024-01-11T03:38:05;56.75;;;22.45;;
33138;SDS011;19501;50.948;5.316;2024-01-11T03:40:31;58.83;;;23.17;;
33138;SDS011;19501;50.948;5.316;2024-01-11T03:42:57;59.95;;;22.85;;
33138;SDS011;19501;50.948;5.316;2024-01-11T03:45:23;57.72;;;24.15;;
33138;SDS011;19501;50.948;5.316;2024-01-11T03:47:48;61.40;;;24.60;;
33138;SDS011;19501;50.948;5.316;2024-01-11T03:50:14;60.88;;;23.30;;
33138;SDS011;19501;50.948;5.316;2024-01-11T03:52:39;60.67;;;22.92;;
33138;SDS011;19501;50.948;5.316;2024-01-11T03:55:05;55.58;;;22.13;;
33138;SDS011;19501;50.948;5.316;2024-01-11T03:57:31;50.92;;;22.33;;
33138;SDS011;19501;50.948;5.316;2024-01-11T03:59:57;59.45;;;23.20;;
33138;SDS011;19501;50.948;5.316;2024-01-11T04:02:25;56.33;;;23.10;;
33138;SDS011;19501;50.948;5.316;2024-01-11T04:04:50;61.88;;;25.00;;
33138;SDS011;19501;50.948;5.316;2024-01-11T04:07:16;56.28;;;23.30;;
33138;SDS011;19501;50.948;5.316;2024-01-11T04:09:42;59.60;;;24.20;;
33138;SDS011;19501;50.948;5.316;2024-01-11T04:12:07;57.03;;;23.50;;
33138;SDS011;19501;50.948;5.316;2024-01-11T04:14:33;58.75;;;22.42;;
33138;SDS011;19501;50.948;5.316;2024-01-11T04:17:03;58.88;;;24.40;;
33138;SDS011;19501;50.948;5.316;2024-01-11T04:19:29;56.50;;;23.38;;
33138;SDS011;19501;50.948;5.316;2024-01-11T04:21:55;56.10;;;23.58;;
33138;SDS011;19501;50.948;5.316;2024-01-11T04:24:20;59.38;;;22.95;;
33138;SDS011;19501;50.948;5.316;2024-01-11T04:26:46;58.67;;;23.02;;
33138;SDS011;19501;50.948;5.316;2024-01-11T04:29:13;60.67;;;23.83;;
33138;SDS011;19501;50.948;5.316;2024-01-11T04:31:39;61.60;;;23.70;;
33138;SDS011;19501;50.948;5.316;2024-01-11T04:34:05;58.15;;;24.10;;
33138;SDS011;19501;50.948;5.316;2024-01-11T04:36:33;60.15;;;23.13;;
33138;SDS011;19501;50.948;5.316;2024-01-11T04:38:58;60.85;;;23.88;;
33138;SDS011;19501;50.948;5.316;2024-01-11T04:41:24;61.92;;;23.60;;
33138;SDS011;19501;50.948;5.316;2024-01-11T04:43:49;58.13;;;23.60;;
33138;SDS011;19501;50.948;5.316;2024-01-11T04:48:47;66.88;;;26.02;;
33138;SDS011;19501;50.948;5.316;2024-01-11T04:51:14;60.10;;;24.75;;
33138;SDS011;19501;50.948;5.316;2024-01-11T04:53:42;63.38;;;23.02;;
33138;SDS011;19501;50.948;5.316;2024-01-11T04:56:08;62.50;;;24.80;;
33138;SDS011;19501;50.948;5.316;2024-01-11T04:58:35;61.45;;;24.67;;
33138;SDS011;19501;50.948;5.316;2024-01-11T05:01:07;72.63;;;26.88;;
33138;SDS011;19501;50.948;5.316;2024-01-11T05:03:37;60.63;;;24.52;;
33138;SDS011;19501;50.948;5.316;2024-01-11T05:06:03;64.53;;;25.05;;
33138;SDS011;19501;50.948;5.316;2024-01-11T05:08:29;60.28;;;24.40;;
33138;SDS011;19501;50.948;5.316;2024-01-11T05:10:57;64.72;;;24.88;;
33138;SDS011;19501;50.948;5.316;2024-01-11T05:13:23;59.85;;;23.08;;
33138;SDS011;19501;50.948;5.316;2024-01-11T05:15:51;58.85;;;23.55;;
33138;SDS011;19501;50.948;5.316;2024-01-11T05:18:17;62.72;;;24.10;;
33138;SDS011;19501;50.948;5.316;2024-01-11T05:20:43;60.28;;;24.35;;
33138;SDS011;19501;50.948;5.316;2024-01-11T05:23:08;57.75;;;24.20;;
33138;SDS011;19501;50.948;5.316;2024-01-11T05:25:34;63.65;;;23.75;;
33138;SDS011;19501;50.948;5.316;2024-01-11T05:28:00;54.42;;;22.17;;
33138;SDS011;19501;50.948;5.316;2024-01-11T05:30:26;58.60;;;23.35;;
33138;SDS011;19501;50.948;5.316;2024-01-11T05:32:52;62.28;;;22.48;;
33138;SDS011;19501;50.948;5.316;2024-01-11T05:35:18;58.85;;;22.75;;
33138;SDS011;19501;50.948;5.316;2024-01-11T05:37:44;64.72;;;24.38;;
33138;SDS011;19501;50.948;5.316;2024-01-11T05:40:10;57.03;;;23.48;;
33138;SDS011;19501;50.948;5.316;2024-01-11T05:42:38;65.15;;;23.83;;
33138;SDS011;19501;50.948;5.316;2024-01-11T05:45:04;65.53;;;24.30;;
33138;SDS011;19501;50.948;5.316;2024-01-11T05:47:30;64.75;;;24.23;;
33138;SDS011;19501;50.948;5.316;2024-01-11T05:49:56;65.65;;;24.95;;
33138;SDS011;19501;50.948;5.316;2024-01-11T05:52:22;66.63;;;25.38;;
33138;SDS011;19501;50.948;5.316;2024-01-11T05:54:47;58.53;;;24.58;;
33138;SDS011;19501;50.948;5.316;2024-01-11T05:57:13;61.15;;;25.75;;
33138;SDS011;19501;50.948;5.316;2024-01-11T05:59:45;63.65;;;23.70;;
33138;SDS011;19501;50.948;5.316;2024-01-11T06:02:11;75.60;;;26.42;;
33138;SDS011;19501;50.948;5.316;2024-01-11T06:04:37;67.00;;;23.92;;
33138;SDS011;19501;50.948;5.316;2024-01-11T06:07:03;63.22;;;24.42;;
33138;SDS011;19501;50.948;5.316;2024-01-11T06:09:29;67.65;;;25.33;;
33138;SDS011;19501;50.948;5.316;2024-01-11T06:11:54;65.32;;;24.70;;
33138;SDS011;19501;50.948;5.316;2024-01-11T06:14:20;72.47;;;26.52;;
33138;SDS011;19501;50.948;5.316;2024-01-11T06:16:48;69.57;;;27.55;;
33138;SDS011;19501;50.948;5.316;2024-01-11T06:19:13;66.40;;;27.25;;
33138;SDS011;19501;50.948;5.316;2024-01-11T06:21:39;63.35;;;24.88;;
33138;SDS011;19501;50.948;5.316;2024-01-11T06:24:07;66.78;;;24.83;;
33138;SDS011;19501;50.948;5.316;2024-01-11T06:26:32;62.88;;;24.63;;
33138;SDS011;19501;50.948;5.316;2024-01-11T06:28:58;64.32;;;25.48;;
33138;SDS011;19501;50.948;5.316;2024-01-11T06:31:24;63.70;;;24.17;;
33138;SDS011;19501;50.948;5.316;2024-01-11T06:33:52;68.00;;;26.67;;
33138;SDS011;19501;50.948;5.316;2024-01-11T06:36:17;74.68;;;26.67;;
33138;SDS011;19501;50.948;5.316;2024-01-11T06:38:43;69.40;;;27.30;;
33138;SDS011;19501;50.948;5.316;2024-01-11T06:41:08;66.40;;;27.40;;
33138;SDS011;19501;50.948;5.316;2024-01-11T06:43:34;66.40;;;27.67;;
33138;SDS011;19501;50.948;5.316;2024-01-11T06:46:06;70.78;;;27.15;;
33138;SDS011;19501;50.948;5.316;2024-01-11T06:48:34;71.05;;;28.25;;
33138;SDS011;19501;50.948;5.316;2024-01-11T06:50:59;70.03;;;27.00;;
33138;SDS011;19501;50.948;5.316;2024-01-11T06:53:25;70.05;;;28.40;;
33138;SDS011;19501;50.948;5.316;2024-01-11T06:55:51;74.82;;;29.00;;
33138;SDS011;19501;50.948;5.316;2024-01-11T06:58:22;77.95;;;30.27;;
33138;SDS011;19501;50.948;5.316;2024-01-11T07:00:48;66.30;;;27.55;;
33138;SDS011;19501;50.948;5.316;2024-01-11T07:03:14;77.45;;;31.02;;
33138;SDS011;19501;50.948;5.316;2024-01-11T07:05:40;80.15;;;31.50;;
33138;SDS011;19501;50.948;5.316;2024-01-11T07:08:06;74.68;;;30.05;;
33138;SDS011;19501;50.948;5.316;2024-01-11T07:10:31;77.03;;;32.13;;
33138;SDS011;19501;50.948;5.316;2024-01-11T07:12:57;73.40;;;30.40;;
33138;SDS011;19501;50.948;5.316;2024-01-11T07:15:23;77.15;;;31.20;;
33138;SDS011;19501;50.948;5.316;2024-01-11T07:17:48;69.88;;;28.80;;
33138;SDS011;19501;50.948;5.316;2024-01-11T07:20:14;75.18;;;29.70;;
33138;SDS011;19501;50.948;5.316;2024-01-11T07:22:41;80.57;;;29.27;;
33138;SDS011;19501;50.948;5.316;2024-01-11T07:25:07;69.28;;;29.67;;
33138;SDS011;19501;50.948;5.316;2024-01-11T07:27:33;71.38;;;30.00;;
33138;SDS011;19501;50.948;5.316;2024-01-11T07:30:00;78.95;;;30.50;;
33138;SDS011;19501;50.948;5.316;2024-01-11T07:32:27;68.60;;;28.52;;
33138;SDS011;19501;50.948;5.316;2024-01-11T07:34:53;76.85;;;28.92;;
33138;SDS011;19501;50.948;5.316;2024-01-11T07:37:21;74.82;;;28.77;;
33138;SDS011;19501;50.948;5.316;2024-01-11T07:39:47;82.10;;;29.88;;
33138;SDS011;19501;50.948;5.316;2024-01-11T07:42:13;70.97;;;28.70;;
33138;SDS011;19501;50.948;5.316;2024-01-11T07:44:39;74.47;;;28.48;;
33138;SDS011;19501;50.948;5.316;2024-01-11T07:47:05;69.32;;;29.17;;
33138;SDS011;19501;50.948;5.316;2024-01-11T07:49:31;73.65;;;27.85;;
33138;SDS011;19501;50.948;5.316;2024-01-11T07:51:57;74.60;;;30.98;;
33138;SDS011;19501;50.948;5.316;2024-01-11T07:54:22;71.57;;;29.08;;
33138;SDS011;19501;50.948;5.316;2024-01-11T07:56:48;73.90;;;28.90;;
33138;SDS011;19501;50.948;5.316;2024-01-11T07:59:13;80.75;;;29.88;;
33138;SDS011;19501;50.948;5.316;2024-01-11T08:01:40;74.10;;;26.25;;
33138;SDS011;19501;50.948;5.316;2024-01-11T08:04:05;74.38;;;27.50;;
33138;SDS011;19501;50.948;5.316;2024-01-11T08:06:31;77.13;;;28.38;;
33138;SDS011;19501;50.948;5.316;2024-01-11T08:08:59;75.60;;;28.52;;
33138;SDS011;19501;50.948;5.316;2024-01-11T08:11:25;80.60;;;28.95;;
33138;SDS011;19501;50.948;5.316;2024-01-11T08:13:50;70.22;;;27.50;;
33138;SDS011;19501;50.948;5.316;2024-01-11T08:16:19;74.82;;;28.73;;
33138;SDS011;19501;50.948;5.316;2024-01-11T08:18:49;77.35;;;29.73;;
33138;SDS011;19501;50.948;5.316;2024-01-11T08:21:15;79.72;;;30.00;;
33138;SDS011;19501;50.948;5.316;2024-01-11T08:23:41;83.43;;;30.65;;
33138;SDS011;19501;50.948;5.316;2024-01-11T08:26:12;72.97;;;29.33;;
33138;SDS011;19501;50.948;5.316;2024-01-11T08:28:44;75.22;;;29.77;;
33138;SDS011;19501;50.948;5.316;2024-01-11T08:31:09;79.18;;;30.95;;
33138;SDS011;19501;50.948;5.316;2024-01-11T08:33:35;82.20;;;31.00;;
33138;SDS011;19501;50.948;5.316;2024-01-11T08:36:02;85.68;;;32.88;;
33138;SDS011;19501;50.948;5.316;2024-01-11T08:38:29;79.63;;;33.13;;
33138;SDS011;19501;50.948;5.316;2024-01-11T08:40:55;88.20;;;32.63;;
33138;SDS011;19501;50.948;5.316;2024-01-11T08:43:20;81.60;;;32.00;;
33138;SDS011;19501;50.948;5.316;2024-01-11T08:45:46;84.15;;;32.95;;
33138;SDS011;19501;50.948;5.316;2024-01-11T08:48:12;82.10;;;34.90;;
33138;SDS011;19501;50.948;5.316;2024-01-11T08:50:38;81.75;;;32.97;;
33138;SDS011;19501;50.948;5.316;2024-01-11T08:53:04;85.30;;;33.90;;
33138;SDS011;19501;50.948;5.316;2024-01-11T08:55:30;86.95;;;35.05;;
33138;SDS011;19501;50.948;5.316;2024-01-11T08:57:55;83.88;;;35.25;;
33138;SDS011;19501;50.948;5.316;2024-01-11T09:00:21;85.22;;;35.72;;
33138;SDS011;19501;50.948;5.316;2024-01-11T09:02:47;87.22;;;34.40;;
33138;SDS011;19501;50.948;5.316;2024-01-11T09:05:16;87.40;;;35.67;;
33138;SDS011;19501;50.948;5.316;2024-01-11T09:07:41;89.72;;;35.30;;
33138;SDS011;19501;50.948;5.316;2024-01-11T09:10:07;86.75;;;34.75;;
33138;SDS011;19501;50.948;5.316;2024-01-11T09:12:34;88.28;;;33.55;;
33138;SDS011;19501;50.948;5.316;2024-01-11T09:15:00;88.38;;;34.83;;
33138;SDS011;19501;50.948;5.316;2024-01-11T09:17:25;90.40;;;35.40;;
33138;SDS011;19501;50.948;5.316;2024-01-11T09:19:51;85.88;;;34.47;;
33138;SDS011;19501;50.948;5.316;2024-01-11T09:22:17;78.82;;;33.92;;
33138;SDS011;19501;50.948;5.316;2024-01-11T09:24:42;84.60;;;33.22;;
33138;SDS011;19501;50.948;5.316;2024-01-11T09:27:08;84.10;;;32.38;;
33138;SDS011;19501;50.948;5.316;2024-01-11T09:29:34;79.15;;;32.83;;
33138;SDS011;19501;50.948;5.316;2024-01-11T09:31:59;87.85;;;35.70;;
33138;SDS011;19501;50.948;5.316;2024-01-11T09:34:26;87.53;;;36.25;;
33138;SDS011;19501;50.948;5.316;2024-01-11T09:36:51;86.65;;;36.03;;
33138;SDS011;19501;50.948;5.316;2024-01-11T09:39:17;73.65;;;33.58;;
33138;SDS011;19501;50.948;5.316;2024-01-11T09:41:50;87.90;;;35.22;;
33138;SDS011;19501;50.948;5.316;2024-01-11T09:44:22;81.60;;;35.28;;
33138;SDS011;19501;50.948;5.316;2024-01-11T09:46:49;85.65;;;37.30;;
33138;SDS011;19501;50.948;5.316;2024-01-11T09:49:15;95.07;;;38.70;;
33138;SDS011;19501;50.948;5.316;2024-01-11T09:51:42;83.82;;;34.70;;
33138;SDS011;19501;50.948;5.316;2024-01-11T09:54:09;89.78;;;36.67;;
33138;SDS011;19501;50.948;5.316;2024-01-11T09:56:35;87.85;;;36.80;;
33138;SDS011;19501;50.948;5.316;2024-01-11T09:59:02;91.85;;;37.53;;
33138;SDS011;19501;50.948;5.316;2024-01-11T10:01:32;93.22;;;36.00;;
33138;SDS011;19501;50.948;5.316;2024-01-11T10:03:59;79.65;;;35.22;;
33138;SDS011;19501;50.948;5.316;2024-01-11T10:06:25;86.03;;;35.50;;
33138;SDS011;19501;50.948;5.316;2024-01-11T10:08:54;81.65;;;34.45;;
33138;SDS011;19501;50.948;5.316;2024-01-11T10:11:19;84.28;;;35.58;;
33138;SDS011;19501;50.948;5.316;2024-01-11T10:13:45;86.68;;;37.35;;
33138;SDS011;19501;50.948;5.316;2024-01-11T10:16:12;82.75;;;34.35;;
33138;SDS011;19501;50.948;5.316;2024-01-11T10:18:40;90.53;;;38.65;;
33138;SDS011;19501;50.948;5.316;2024-01-11T10:21:06;88.13;;;36.15;;
33138;SDS011;19501;50.948;5.316;2024-01-11T10:23:34;91.13;;;37.50;;
33138;SDS011;19501;50.948;5.316;2024-01-11T10:26:01;92.03;;;37.72;;
33138;SDS011;19501;50.948;5.316;2024-01-11T10:28:27;82.18;;;36.30;;
33138;SDS011;19501;50.948;5.316;2024-01-11T10:30:53;92.05;;;38.33;;
33138;SDS011;19501;50.948;5.316;2024-01-11T10:33:20;84.38;;;35.17;;
33138;SDS011;19501;50.948;5.316;2024-01-11T10:35:47;82.70;;;35.08;;
33138;SDS011;19501;50.948;5.316;2024-01-11T10:38:14;90.18;;;37.90;;
33138;SDS011;19501;50.948;5.316;2024-01-11T10:40:40;88.40;;;37.00;;
33138;SDS011;19501;50.948;5.316;2024-01-11T10:43:08;92.85;;;36.75;;
33138;SDS011;19501;50.948;5.316;2024-01-11T10:45:36;79.63;;;35.63;;
33138;SDS011;19501;50.948;5.316;2024-01-11T10:48:06;80.78;;;36.72;;
33138;SDS011;19501;50.948;5.316;2024-01-11T10:50:37;86.63;;;37.08;;
33138;SDS011;19501;50.948;5.316;2024-01-11T10:55:57;95.75;;;36.60;;
33138;SDS011;19501;50.948;5.316;2024-01-11T10:58:27;94.43;;;37.58;;
33138;SDS011;19501;50.948;5.316;2024-01-11T11:00:56;83.00;;;36.35;;
33138;SDS011;19501;50.948;5.316;2024-01-11T11:03:24;84.20;;;37.28;;
33138;SDS011;19501;50.948;5.316;2024-01-11T11:05:54;83.18;;;36.83;;
33138;SDS011;19501;50.948;5.316;2024-01-11T11:08:23;82.13;;;36.63;;
33138;SDS011;19501;50.948;5.316;2024-01-11T11:10:55;60.63;;;27.50;;
33138;SDS011;19501;50.948;5.316;2024-01-11T11:13:22;90.38;;;36.53;;
33138;SDS011;19501;50.948;5.316;2024-01-11T11:15:48;83.13;;;37.22;;
33138;SDS011;19501;50.948;5.316;2024-01-11T11:18:14;80.72;;;34.20;;
33138;SDS011;19501;50.948;5.316;2024-01-11T11:20:41;79.65;;;34.40;;
33138;SDS011;19501;50.948;5.316;2024-01-11T11:23:08;73.55;;;32.72;;
33138;SDS011;19501;50.948;5.316;2024-01-11T11:25:38;78.20;;;34.08;;
33138;SDS011;19501;50.948;5.316;2024-01-11T11:28:05;77.45;;;34.97;;
33138;SDS011;19501;50.948;5.316;2024-01-11T11:30:32;76.30;;;33.88;;
33138;SDS011;19501;50.948;5.316;2024-01-11T11:33:11;72.60;;;33.30;;
33138;SDS011;19501;50.948;5.316;2024-01-11T11:35:48;70.57;;;31.40;;
33138;SDS011;19501;50.948;5.316;2024-01-11T11:38:20;71.07;;;31.65;;
33138;SDS011;19501;50.948;5.316;2024-01-11T11:40:47;66.70;;;31.17;;
33138;SDS011;19501;50.948;5.316;2024-01-11T11:43:17;67.97;;;31.17;;
33138;SDS011;19501;50.948;5.316;2024-01-11T11:45:46;66.53;;;30.13;;
33138;SDS011;19501;50.948;5.316;2024-01-11T11:53:40;60.35;;;28.45;;
33138;SDS011;19501;50.948;5.316;2024-01-11T11:56:06;52.97;;;28.15;;
33138;SDS011;19501;50.948;5.316;2024-01-11T11:58:34;61.88;;;29.35;;
33138;SDS011;19501;50.948;5.316;2024-01-11T12:01:00;53.90;;;26.90;;
33138;SDS011;19501;50.948;5.316;2024-01-11T12:03:28;57.85;;;27.27;;
33138;SDS011;19501;50.948;5.316;2024-01-11T12:06:05;63.25;;;29.55;;
33138;SDS011;19501;50.948;5.316;2024-01-11T12:08:37;56.55;;;28.50;;
33138;SDS011;19501;50.948;5.316;2024-01-11T12:11:09;60.90;;;28.30;;
33138;SDS011;19501;50.948;5.316;2024-01-11T12:13:37;53.90;;;25.77;;
33138;SDS011;19501;50.948;5.316;2024-01-11T12:16:04;53.17;;;27.42;;
33138;SDS011;19501;50.948;5.316;2024-01-11T12:18:30;53.58;;;27.65;;
33138;SDS011;19501;50.948;5.316;2024-01-11T12:20:56;54.65;;;27.17;;
33138;SDS011;19501;50.948;5.316;2024-01-11T12:23:21;57.15;;;28.20;;
33138;SDS011;19501;50.948;5.316;2024-01-11T12:25:48;60.47;;;27.83;;
33138;SDS011;19501;50.948;5.316;2024-01-11T12:28:14;57.13;;;27.08;;
33138;SDS011;19501;50.948;5.316;2024-01-11T12:30:39;53.65;;;26.92;;
33138;SDS011;19501;50.948;5.316;2024-01-11T12:33:05;52.90;;;27.42;;
33138;SDS011;19501;50.948;5.316;2024-01-11T12:35:31;55.92;;;27.25;;
33138;SDS011;19501;50.948;5.316;2024-01-11T12:38:00;55.10;;;26.60;;
33138;SDS011;19501;50.948;5.316;2024-01-11T12:40:36;52.40;;;25.90;;
33138;SDS011;19501;50.948;5.316;2024-01-11T12:43:02;49.03;;;25.98;;
33138;SDS011;19501;50.948;5.316;2024-01-11T12:45:35;52.10;;;27.13;;
33138;SDS011;19501;50.948;5.316;2024-01-11T12:48:01;55.85;;;26.40;;
33138;SDS011;19501;50.948;5.316;2024-01-11T12:50:30;50.33;;;24.35;;
33138;SDS011;19501;50.948;5.316;2024-01-11T12:55:37;70.78;;;36.47;;
33138;SDS011;19501;50.948;5.316;2024-01-11T12:58:11;52.10;;;29.13;;
33138;SDS011;19501;50.948;5.316;2024-01-11T13:00:37;62.90;;;30.35;;
33138;SDS011;19501;50.948;5.316;2024-01-11T13:03:07;63.25;;;37.13;;
33138;SDS011;19501;50.948;5.316;2024-01-11T13:05:34;63.50;;;36.92;;
33138;SDS011;19501;50.948;5.316;2024-01-11T13:08:10;55.85;;;27.48;;
33138;SDS011;19501;50.948;5.316;2024-01-11T13:10:36;49.88;;;25.63;;
33138;SDS011;19501;50.948;5.316;2024-01-11T13:13:02;48.85;;;25.00;;
33138;SDS011;19501;50.948;5.316;2024-01-11T13:15:29;55.55;;;25.17;;
33138;SDS011;19501;50.948;5.316;2024-01-11T13:17:56;48.38;;;25.80;;
33138;SDS011;19501;50.948;5.316;2024-01-11T13:20:26;52.05;;;24.98;;
33138;SDS011;19501;50.948;5.316;2024-01-11T13:23:12;49.28;;;26.17;;
33138;SDS011;19501;50.948;5.316;2024-01-11T13:25:44;48.53;;;25.05;;
33138;SDS011;19501;50.948;5.316;2024-01-11T13:28:11;53.40;;;25.50;;
33138;SDS011;19501;50.948;5.316;2024-01-11T13:30:37;47.33;;;24.92;;
33138;SDS011;19501;50.948;5.316;2024-01-11T13:33:07;48.63;;;23.95;;
33138;SDS011;19501;50.948;5.316;2024-01-11T13:35:34;47.88;;;24.10;;
33138;SDS011;19501;50.948;5.316;2024-01-11T13:38:00;48.33;;;27.50;;
33138;SDS011;19501;50.948;5.316;2024-01-11T13:40:27;49.38;;;26.50;;
33138;SDS011;19501;50.948;5.316;2024-01-11T13:42:54;47.83;;;24.38;;
33138;SDS011;19501;50.948;5.316;2024-01-11T13:45:21;45.60;;;24.23;;
33138;SDS011;19501;50.948;5.316;2024-01-11T13:47:47;44.55;;;23.90;;
33138;SDS011;19501;50.948;5.316;2024-01-11T13:50:13;48.67;;;28.98;;
33138;SDS011;19501;50.948;5.316;2024-01-11T13:52:39;44.63;;;24.80;;
33138;SDS011;19501;50.948;5.316;2024-01-11T13:55:07;46.65;;;24.70;;
33138;SDS011;19501;50.948;5.316;2024-01-11T13:57:35;43.97;;;22.75;;
33138;SDS011;19501;50.948;5.316;2024-01-11T14:00:02;46.17;;;23.77;;
33138;SDS011;19501;50.948;5.316;2024-01-11T14:02:28;45.13;;;24.83;;
33138;SDS011;19501;50.948;5.316;2024-01-11T14:04:54;44.05;;;22.33;;
33138;SDS011;19501;50.948;5.316;2024-01-11T14:07:20;40.83;;;22.55;;
33138;SDS011;19501;50.948;5.316;2024-01-11T14:09:45;41.17;;;22.52;;
33138;SDS011;19501;50.948;5.316;2024-01-11T14:12:11;41.17;;;21.13;;
33138;SDS011;19501;50.948;5.316;2024-01-11T14:14:37;41.88;;;23.30;;
33138;SDS011;19501;50.948;5.316;2024-01-11T14:17:02;44.40;;;23.05;;
33138;SDS011;19501;50.948;5.316;2024-01-11T14:19:28;53.13;;;31.35;;
33138;SDS011;19501;50.948;5.316;2024-01-11T14:21:54;56.15;;;35.33;;
33138;SDS011;19501;50.948;5.316;2024-01-11T14:24:19;50.70;;;26.20;;
33138;SDS011;19501;50.948;5.316;2024-01-11T14:26:45;40.67;;;21.25;;
33138;SDS011;19501;50.948;5.316;2024-01-11T14:29:10;47.15;;;21.52;;
33138;SDS011;19501;50.948;5.316;2024-01-11T14:31:36;45.33;;;22.20;;